sensor_id;sensor_type;location;lat;lon;timestamp;temperature;humidity
65836;SHT30;52595;51.608;7.216;2023-04-24T00:02:09;11.04;82.24
65836;SHT30;52595;51.608;7.216;2023-04-24T00:04:37;11.07;82.15
65836;SHT30;52595;51.608;7.216;2023-04-24T00:07:06;11.06;82.05
65836;SHT30;52595;51.608;7.216;2023-04-24T00:09:32;11.06;81.84
65836;SHT30;52595;51.608;7.216;2023-04-24T00:11:57;11.06;81.83
65836;SHT30;52595;51.608;7.216;2023-04-24T00:14:23;10.97;82.19
65836;SHT30;52595;51.608;7.216;2023-04-24T00:16:48;11.03;81.80
65836;SHT30;52595;51.608;7.216;2023-04-24T00:19:14;11.10;81.51
65836;SHT30;52595;51.608;7.216;2023-04-24T00:21:40;11.10;81.67
65836;SHT30;52595;51.608;7.216;2023-04-24T00:24:06;11.07;81.71
65836;SHT30;52595;51.608;7.216;2023-04-24T00:26:34;11.07;81.90
65836;SHT30;52595;51.608;7.216;2023-04-24T00:28:59;11.12;81.78
65836;SHT30;52595;51.608;7.216;2023-04-24T00:31:24;11.16;81.61
65836;SHT30;52595;51.608;7.216;2023-04-24T00:33:50;11.16;81.42
65836;SHT30;52595;51.608;7.216;2023-04-24T00:36:16;11.16;81.78
65836;SHT30;52595;51.608;7.216;2023-04-24T00:38:41;11.17;82.07
65836;SHT30;52595;51.608;7.216;2023-04-24T00:41:07;11.19;81.42
65836;SHT30;52595;51.608;7.216;2023-04-24T00:43:32;11.17;81.36
65836;SHT30;52595;51.608;7.216;2023-04-24T00:45:58;11.19;81.04
65836;SHT30;52595;51.608;7.216;2023-04-24T00:48:25;11.13;81.38
65836;SHT30;52595;51.608;7.216;2023-04-24T00:50:50;11.06;81.83
65836;SHT30;52595;51.608;7.216;2023-04-24T00:53:16;11.04;81.83
65836;SHT30;52595;51.608;7.216;2023-04-24T00:55:41;11.02;81.20
65836;SHT30;52595;51.608;7.216;2023-04-24T00:58:07;11.02;80.92
65836;SHT30;52595;51.608;7.216;2023-04-24T01:00:33;11.02;80.19
65836;SHT30;52595;51.608;7.216;2023-04-24T01:03:00;10.96;80.84
65836;SHT30;52595;51.608;7.216;2023-04-24T01:05:27;10.89;80.62
65836;SHT30;52595;51.608;7.216;2023-04-24T01:07:52;10.69;81.55
65836;SHT30;52595;51.608;7.216;2023-04-24T01:10:18;10.58;81.75
65836;SHT30;52595;51.608;7.216;2023-04-24T01:12:46;10.45;82.49
65836;SHT30;52595;51.608;7.216;2023-04-24T01:15:11;10.37;82.72
65836;SHT30;52595;51.608;7.216;2023-04-24T01:17:36;10.28;83.34
65836;SHT30;52595;51.608;7.216;2023-04-24T01:20:04;10.32;83.20
65836;SHT30;52595;51.608;7.216;2023-04-24T01:22:30;10.42;82.80
65836;SHT30;52595;51.608;7.216;2023-04-24T01:24:56;10.41;82.84
65836;SHT30;52595;51.608;7.216;2023-04-24T01:27:21;10.41;83.05
65836;SHT30;52595;51.608;7.216;2023-04-24T01:29:47;10.32;83.50
65836;SHT30;52595;51.608;7.216;2023-04-24T01:32:14;10.28;83.58
65836;SHT30;52595;51.608;7.216;2023-04-24T01:34:40;10.24;83.64
65836;SHT30;52595;51.608;7.216;2023-04-24T01:37:06;10.09;84.09
65836;SHT30;52595;51.608;7.216;2023-04-24T01:39:32;9.98;84.80
65836;SHT30;52595;51.608;7.216;2023-04-24T01:41:59;9.97;84.58
65836;SHT30;52595;51.608;7.216;2023-04-24T01:44:26;9.90;85.04
65836;SHT30;52595;51.608;7.216;2023-04-24T01:46:51;9.86;85.13
65836;SHT30;52595;51.608;7.216;2023-04-24T01:49:19;9.87;84.79
65836;SHT30;52595;51.608;7.216;2023-04-24T01:51:44;9.90;84.77
65836;SHT30;52595;51.608;7.216;2023-04-24T01:54:10;9.88;84.93
65836;SHT30;52595;51.608;7.216;2023-04-24T01:56:36;9.81;84.99
65836;SHT30;52595;51.608;7.216;2023-04-24T01:59:05;9.83;84.74
65836;SHT30;52595;51.608;7.216;2023-04-24T02:01:35;9.71;85.05
65836;SHT30;52595;51.608;7.216;2023-04-24T02:04:04;9.67;85.49
65836;SHT30;52595;51.608;7.216;2023-04-24T02:06:29;9.64;85.59
65836;SHT30;52595;51.608;7.216;2023-04-24T02:08:59;9.56;86.14
65836;SHT30;52595;51.608;7.216;2023-04-24T02:11:25;9.46;86.46
65836;SHT30;52595;51.608;7.216;2023-04-24T02:13:51;9.44;86.77
65836;SHT30;52595;51.608;7.216;2023-04-24T02:16:17;9.32;87.20
65836;SHT30;52595;51.608;7.216;2023-04-24T02:18:42;9.39;86.92
65836;SHT30;52595;51.608;7.216;2023-04-24T02:21:07;9.37;86.73
65836;SHT30;52595;51.608;7.216;2023-04-24T02:23:33;9.43;86.58
65836;SHT30;52595;51.608;7.216;2023-04-24T02:25:58;9.43;86.52
65836;SHT30;52595;51.608;7.216;2023-04-24T02:28:23;9.42;86.68
65836;SHT30;52595;51.608;7.216;2023-04-24T02:30:50;9.36;86.88
65836;SHT30;52595;51.608;7.216;2023-04-24T02:33:15;9.39;86.87
65836;SHT30;52595;51.608;7.216;2023-04-24T02:35:41;9.42;86.45
65836;SHT30;52595;51.608;7.216;2023-04-24T02:38:06;9.44;86.11
65836;SHT30;52595;51.608;7.216;2023-04-24T02:40:31;9.34;86.50
65836;SHT30;52595;51.608;7.216;2023-04-24T02:42:57;9.34;86.59
65836;SHT30;52595;51.608;7.216;2023-04-24T02:45:22;9.32;86.47
65836;SHT30;52595;51.608;7.216;2023-04-24T02:47:48;9.33;86.29
65836;SHT30;52595;51.608;7.216;2023-04-24T02:50:13;9.27;86.46
65836;SHT30;52595;51.608;7.216;2023-04-24T02:52:38;9.27;86.64
65836;SHT30;52595;51.608;7.216;2023-04-24T02:55:04;9.23;86.80
65836;SHT30;52595;51.608;7.216;2023-04-24T02:57:30;9.19;86.81
65836;SHT30;52595;51.608;7.216;2023-04-24T02:59:55;9.18;86.89
65836;SHT30;52595;51.608;7.216;2023-04-24T03:02:21;9.18;86.91
65836;SHT30;52595;51.608;7.216;2023-04-24T03:04:46;9.16;87.06
65836;SHT30;52595;51.608;7.216;2023-04-24T03:07:13;9.16;87.12
65836;SHT30;52595;51.608;7.216;2023-04-24T03:09:39;9.18;87.20
65836;SHT30;52595;51.608;7.216;2023-04-24T03:12:05;9.18;87.06
65836;SHT30;52595;51.608;7.216;2023-04-24T03:14:30;9.19;87.17
65836;SHT30;52595;51.608;7.216;2023-04-24T03:16:56;9.19;87.21
65836;SHT30;52595;51.608;7.216;2023-04-24T03:19:22;9.20;87.20
65836;SHT30;52595;51.608;7.216;2023-04-24T03:21:48;9.20;87.00
65836;SHT30;52595;51.608;7.216;2023-04-24T03:24:13;9.18;87.19
65836;SHT30;52595;51.608;7.216;2023-04-24T03:26:39;9.23;87.02
65836;SHT30;52595;51.608;7.216;2023-04-24T03:29:04;9.23;87.04
65836;SHT30;52595;51.608;7.216;2023-04-24T03:31:29;9.26;86.88
65836;SHT30;52595;51.608;7.216;2023-04-24T03:33:55;9.27;87.22
65836;SHT30;52595;51.608;7.216;2023-04-24T03:36:20;9.27;86.83
65836;SHT30;52595;51.608;7.216;2023-04-24T03:38:46;9.29;87.24
65836;SHT30;52595;51.608;7.216;2023-04-24T03:41:11;9.30;86.99
65836;SHT30;52595;51.608;7.216;2023-04-24T03:43:38;9.34;86.77
65836;SHT30;52595;51.608;7.216;2023-04-24T03:46:04;9.32;86.76
65836;SHT30;52595;51.608;7.216;2023-04-24T03:48:29;9.36;86.58
65836;SHT30;52595;51.608;7.216;2023-04-24T03:50:55;9.37;86.84
65836;SHT30;52595;51.608;7.216;2023-04-24T03:53:20;9.40;86.69
65836;SHT30;52595;51.608;7.216;2023-04-24T03:55:46;9.34;87.00
65836;SHT30;52595;51.608;7.216;2023-04-24T03:58:11;9.34;86.88
65836;SHT30;52595;51.608;7.216;2023-04-24T04:00:38;9.39;86.71
65836;SHT30;52595;51.608;7.216;2023-04-24T04:03:05;9.42;86.77
65836;SHT30;52595;51.608;7.216;2023-04-24T04:05:31;9.39;86.90
65836;SHT30;52595;51.608;7.216;2023-04-24T04:07:56;9.40;86.83
65836;SHT30;52595;51.608;7.216;2023-04-24T04:10:21;9.43;86.67
65836;SHT30;52595;51.608;7.216;2023-04-24T04:12:47;9.46;86.68
65836;SHT30;52595;51.608;7.216;2023-04-24T04:15:12;9.40;86.90
65836;SHT30;52595;51.608;7.216;2023-04-24T04:17:38;9.43;86.46
65836;SHT30;52595;51.608;7.216;2023-04-24T04:20:04;9.44;86.60
65836;SHT30;52595;51.608;7.216;2023-04-24T04:22:34;9.46;86.25
65836;SHT30;52595;51.608;7.216;2023-04-24T04:24:59;9.47;86.52
65836;SHT30;52595;51.608;7.216;2023-04-24T04:27:25;9.47;86.32
65836;SHT30;52595;51.608;7.216;2023-04-24T04:29:51;9.50;86.01
65836;SHT30;52595;51.608;7.216;2023-04-24T04:32:17;9.53;85.75
65836;SHT30;52595;51.608;7.216;2023-04-24T04:34:43;9.50;86.16
65836;SHT30;52595;51.608;7.216;2023-04-24T04:37:10;9.51;85.85
65836;SHT30;52595;51.608;7.216;2023-04-24T04:39:37;9.53;85.85
65836;SHT30;52595;51.608;7.216;2023-04-24T04:42:03;9.51;85.60
65836;SHT30;52595;51.608;7.216;2023-04-24T04:44:29;9.51;85.53
65836;SHT30;52595;51.608;7.216;2023-04-24T04:46:55;9.51;85.72
65836;SHT30;52595;51.608;7.216;2023-04-24T04:49:21;9.51;85.95
65836;SHT30;52595;51.608;7.216;2023-04-24T04:51:48;9.50;85.86
65836;SHT30;52595;51.608;7.216;2023-04-24T04:54:14;9.53;85.92
65836;SHT30;52595;51.608;7.216;2023-04-24T04:56:40;9.53;85.67
65836;SHT30;52595;51.608;7.216;2023-04-24T04:59:06;9.54;85.57
65836;SHT30;52595;51.608;7.216;2023-04-24T05:01:31;9.56;85.56
65836;SHT30;52595;51.608;7.216;2023-04-24T05:03:57;9.53;85.97
65836;SHT30;52595;51.608;7.216;2023-04-24T05:06:22;9.54;85.45
65836;SHT30;52595;51.608;7.216;2023-04-24T05:08:47;9.57;85.30
65836;SHT30;52595;51.608;7.216;2023-04-24T05:11:13;9.57;85.27
65836;SHT30;52595;51.608;7.216;2023-04-24T05:13:40;9.60;85.16
65836;SHT30;52595;51.608;7.216;2023-04-24T05:16:05;9.63;85.19
65836;SHT30;52595;51.608;7.216;2023-04-24T05:18:31;9.63;85.13
65836;SHT30;52595;51.608;7.216;2023-04-24T05:20:56;9.63;85.20
65836;SHT30;52595;51.608;7.216;2023-04-24T05:23:21;9.60;85.01
65836;SHT30;52595;51.608;7.216;2023-04-24T05:25:47;9.71;86.47
65836;SHT30;52595;51.608;7.216;2023-04-24T05:28:12;9.69;84.64
65836;SHT30;52595;51.608;7.216;2023-04-24T05:30:38;9.61;84.55
65836;SHT30;52595;51.608;7.216;2023-04-24T05:33:03;9.57;84.59
65836;SHT30;52595;51.608;7.216;2023-04-24T05:35:28;9.54;84.84
65836;SHT30;52595;51.608;7.216;2023-04-24T05:37:54;9.56;84.93
65836;SHT30;52595;51.608;7.216;2023-04-24T05:40:19;9.56;84.96
65836;SHT30;52595;51.608;7.216;2023-04-24T05:42:45;9.51;84.58
65836;SHT30;52595;51.608;7.216;2023-04-24T05:45:10;9.51;84.73
65836;SHT30;52595;51.608;7.216;2023-04-24T05:47:41;9.58;84.80
65836;SHT30;52595;51.608;7.216;2023-04-24T05:50:07;9.60;84.84
65836;SHT30;52595;51.608;7.216;2023-04-24T05:52:32;9.50;85.16
65836;SHT30;52595;51.608;7.216;2023-04-24T05:54:58;9.42;85.72
65836;SHT30;52595;51.608;7.216;2023-04-24T05:57:23;9.26;86.82
65836;SHT30;52595;51.608;7.216;2023-04-24T05:59:49;8.93;88.81
65836;SHT30;52595;51.608;7.216;2023-04-24T06:02:15;8.67;90.06
65836;SHT30;52595;51.608;7.216;2023-04-24T06:04:40;8.57;90.36
65836;SHT30;52595;51.608;7.216;2023-04-24T06:07:06;8.48;90.77
65836;SHT30;52595;51.608;7.216;2023-04-24T06:09:32;8.45;91.12
65836;SHT30;52595;51.608;7.216;2023-04-24T06:11:57;8.40;90.77
65836;SHT30;52595;51.608;7.216;2023-04-24T06:14:23;8.44;91.08
65836;SHT30;52595;51.608;7.216;2023-04-24T06:16:49;8.45;90.68
65836;SHT30;52595;51.608;7.216;2023-04-24T06:19:14;8.49;90.56
65836;SHT30;52595;51.608;7.216;2023-04-24T06:21:40;8.58;90.23
65836;SHT30;52595;51.608;7.216;2023-04-24T06:24:05;8.71;89.76
65836;SHT30;52595;51.608;7.216;2023-04-24T06:26:31;8.73;89.52
65836;SHT30;52595;51.608;7.216;2023-04-24T06:28:56;8.76;88.98
65836;SHT30;52595;51.608;7.216;2023-04-24T06:31:24;8.82;89.19
65836;SHT30;52595;51.608;7.216;2023-04-24T06:33:49;8.89;88.95
65836;SHT30;52595;51.608;7.216;2023-04-24T06:36:15;8.96;88.91
65836;SHT30;52595;51.608;7.216;2023-04-24T06:38:41;9.02;88.33
65836;SHT30;52595;51.608;7.216;2023-04-24T06:41:06;9.03;88.52
65836;SHT30;52595;51.608;7.216;2023-04-24T06:43:32;9.15;88.37
65836;SHT30;52595;51.608;7.216;2023-04-24T06:45:58;9.09;88.82
65836;SHT30;52595;51.608;7.216;2023-04-24T06:48:24;8.83;89.13
65836;SHT30;52595;51.608;7.216;2023-04-24T06:50:50;8.81;90.10
65836;SHT30;52595;51.608;7.216;2023-04-24T06:53:15;8.72;90.40
65836;SHT30;52595;51.608;7.216;2023-04-24T06:55:41;8.62;90.75
65836;SHT30;52595;51.608;7.216;2023-04-24T06:58:08;8.57;91.20
65836;SHT30;52595;51.608;7.216;2023-04-24T07:00:34;8.49;91.59
65836;SHT30;52595;51.608;7.216;2023-04-24T07:02:59;8.44;91.71
65836;SHT30;52595;51.608;7.216;2023-04-24T07:05:25;8.37;92.24
65836;SHT30;52595;51.608;7.216;2023-04-24T07:07:50;8.31;91.93
65836;SHT30;52595;51.608;7.216;2023-04-24T07:10:16;8.31;92.21
65836;SHT30;52595;51.608;7.216;2023-04-24T07:12:42;8.38;91.74
65836;SHT30;52595;51.608;7.216;2023-04-24T07:15:08;8.49;91.63
65836;SHT30;52595;51.608;7.216;2023-04-24T07:17:34;8.59;91.03
65836;SHT30;52595;51.608;7.216;2023-04-24T07:20:00;8.65;91.01
65836;SHT30;52595;51.608;7.216;2023-04-24T07:22:25;8.71;90.75
65836;SHT30;52595;51.608;7.216;2023-04-24T07:24:51;8.75;90.76
65836;SHT30;52595;51.608;7.216;2023-04-24T07:27:16;8.73;90.51
65836;SHT30;52595;51.608;7.216;2023-04-24T07:29:42;8.72;90.52
65836;SHT30;52595;51.608;7.216;2023-04-24T07:32:07;8.67;90.33
65836;SHT30;52595;51.608;7.216;2023-04-24T07:34:33;8.67;90.23
65836;SHT30;52595;51.608;7.216;2023-04-24T07:36:58;8.75;89.90
65836;SHT30;52595;51.608;7.216;2023-04-24T07:39:24;8.86;89.68
65836;SHT30;52595;51.608;7.216;2023-04-24T07:41:50;8.85;89.74
65836;SHT30;52595;51.608;7.216;2023-04-24T07:44:15;8.86;89.89
65836;SHT30;52595;51.608;7.216;2023-04-24T07:46:41;8.93;89.60
65836;SHT30;52595;51.608;7.216;2023-04-24T07:49:06;8.86;89.10
65836;SHT30;52595;51.608;7.216;2023-04-24T07:51:32;9.11;89.19
65836;SHT30;52595;51.608;7.216;2023-04-24T07:53:59;9.40;89.06
65836;SHT30;52595;51.608;7.216;2023-04-24T07:56:25;9.29;88.74
65836;SHT30;52595;51.608;7.216;2023-04-24T07:58:50;8.96;88.63
65836;SHT30;52595;51.608;7.216;2023-04-24T08:01:16;8.91;89.20
65836;SHT30;52595;51.608;7.216;2023-04-24T08:03:41;8.95;89.72
65836;SHT30;52595;51.608;7.216;2023-04-24T08:06:06;8.95;89.66
65836;SHT30;52595;51.608;7.216;2023-04-24T08:08:32;8.82;88.69
65836;SHT30;52595;51.608;7.216;2023-04-24T08:10:57;8.92;88.95
65836;SHT30;52595;51.608;7.216;2023-04-24T08:13:23;8.81;88.33
65836;SHT30;52595;51.608;7.216;2023-04-24T08:15:48;8.92;88.97
65836;SHT30;52595;51.608;7.216;2023-04-24T08:18:14;8.91;88.79
65836;SHT30;52595;51.608;7.216;2023-04-24T08:20:41;8.79;89.19
65836;SHT30;52595;51.608;7.216;2023-04-24T08:23:06;8.59;89.50
65836;SHT30;52595;51.608;7.216;2023-04-24T08:25:32;8.52;89.96
65836;SHT30;52595;51.608;7.216;2023-04-24T08:27:57;8.27;90.06
65836;SHT30;52595;51.608;7.216;2023-04-24T08:30:23;8.13;91.02
65836;SHT30;52595;51.608;7.216;2023-04-24T08:32:48;8.04;90.84
65836;SHT30;52595;51.608;7.216;2023-04-24T08:35:13;7.90;91.08
65836;SHT30;52595;51.608;7.216;2023-04-24T08:37:39;7.80;91.62
65836;SHT30;52595;51.608;7.216;2023-04-24T08:40:15;7.70;91.47
65836;SHT30;52595;51.608;7.216;2023-04-24T08:42:44;7.66;92.16
65836;SHT30;52595;51.608;7.216;2023-04-24T08:45:11;7.70;92.65
65836;SHT30;52595;51.608;7.216;2023-04-24T08:47:38;7.63;92.60
65836;SHT30;52595;51.608;7.216;2023-04-24T08:50:04;7.60;93.11
65836;SHT30;52595;51.608;7.216;2023-04-24T08:52:32;7.58;93.64
65836;SHT30;52595;51.608;7.216;2023-04-24T08:54:59;7.53;93.80
65836;SHT30;52595;51.608;7.216;2023-04-24T08:57:25;7.51;93.97
65836;SHT30;52595;51.608;7.216;2023-04-24T08:59:52;7.51;94.40
65836;SHT30;52595;51.608;7.216;2023-04-24T09:02:18;7.56;94.72
65836;SHT30;52595;51.608;7.216;2023-04-24T09:04:45;7.49;94.59
65836;SHT30;52595;51.608;7.216;2023-04-24T09:07:12;7.51;95.06
65836;SHT30;52595;51.608;7.216;2023-04-24T09:09:40;7.56;95.34
65836;SHT30;52595;51.608;7.216;2023-04-24T09:12:07;7.59;95.53
65836;SHT30;52595;51.608;7.216;2023-04-24T09:14:34;7.65;95.76
65836;SHT30;52595;51.608;7.216;2023-04-24T09:17:01;7.69;95.79
65836;SHT30;52595;51.608;7.216;2023-04-24T09:19:27;7.79;95.81
65836;SHT30;52595;51.608;7.216;2023-04-24T09:21:53;7.86;95.81
65836;SHT30;52595;51.608;7.216;2023-04-24T09:24:20;7.96;95.85
65836;SHT30;52595;51.608;7.216;2023-04-24T09:26:48;8.03;95.47
65836;SHT30;52595;51.608;7.216;2023-04-24T09:29:18;8.17;95.69
65836;SHT30;52595;51.608;7.216;2023-04-24T09:31:45;8.30;95.41
65836;SHT30;52595;51.608;7.216;2023-04-24T09:34:11;8.38;95.26
65836;SHT30;52595;51.608;7.216;2023-04-24T09:36:38;8.42;94.82
65836;SHT30;52595;51.608;7.216;2023-04-24T09:39:05;8.47;94.85
65836;SHT30;52595;51.608;7.216;2023-04-24T09:41:33;8.44;94.39
65836;SHT30;52595;51.608;7.216;2023-04-24T09:44:14;8.44;94.88
65836;SHT30;52595;51.608;7.216;2023-04-24T09:46:41;8.45;95.15
65836;SHT30;52595;51.608;7.216;2023-04-24T09:49:14;8.45;94.91
65836;SHT30;52595;51.608;7.216;2023-04-24T09:51:41;8.33;94.23
65836;SHT30;52595;51.608;7.216;2023-04-24T09:54:17;8.31;93.37
65836;SHT30;52595;51.608;7.216;2023-04-24T09:56:44;8.28;93.10
65836;SHT30;52595;51.608;7.216;2023-04-24T09:59:11;8.18;92.75
65836;SHT30;52595;51.608;7.216;2023-04-24T10:01:36;8.16;92.91
65836;SHT30;52595;51.608;7.216;2023-04-24T10:04:03;8.16;93.40
65836;SHT30;52595;51.608;7.216;2023-04-24T10:06:35;8.13;93.38
65836;SHT30;52595;51.608;7.216;2023-04-24T10:09:01;8.10;94.38
65836;SHT30;52595;51.608;7.216;2023-04-24T10:11:29;8.16;94.52
65836;SHT30;52595;51.608;7.216;2023-04-24T10:13:55;8.07;94.15
65836;SHT30;52595;51.608;7.216;2023-04-24T10:16:22;7.98;94.46
65836;SHT30;52595;51.608;7.216;2023-04-24T10:18:49;7.98;94.75
65836;SHT30;52595;51.608;7.216;2023-04-24T10:21:15;7.83;94.16
65836;SHT30;52595;51.608;7.216;2023-04-24T10:23:41;7.91;94.40
65836;SHT30;52595;51.608;7.216;2023-04-24T10:26:09;7.90;94.22
65836;SHT30;52595;51.608;7.216;2023-04-24T10:28:36;7.98;94.51
65836;SHT30;52595;51.608;7.216;2023-04-24T10:31:01;7.91;94.91
65836;SHT30;52595;51.608;7.216;2023-04-24T10:33:29;7.93;94.09
65836;SHT30;52595;51.608;7.216;2023-04-24T10:35:56;7.90;94.12
65836;SHT30;52595;51.608;7.216;2023-04-24T10:38:25;8.01;94.70
65836;SHT30;52595;51.608;7.216;2023-04-24T10:40:57;8.13;94.56
65836;SHT30;52595;51.608;7.216;2023-04-24T10:43:22;8.14;94.72
65836;SHT30;52595;51.608;7.216;2023-04-24T10:46:06;8.20;95.10
65836;SHT30;52595;51.608;7.216;2023-04-24T10:48:33;8.04;94.85
65836;SHT30;52595;51.608;7.216;2023-04-24T10:50:58;8.00;95.35
65836;SHT30;52595;51.608;7.216;2023-04-24T10:53:27;7.94;95.19
65836;SHT30;52595;51.608;7.216;2023-04-24T10:58:57;7.94;95.02
65836;SHT30;52595;51.608;7.216;2023-04-24T11:01:28;7.90;94.94
65836;SHT30;52595;51.608;7.216;2023-04-24T11:04:02;7.83;94.04
65836;SHT30;52595;51.608;7.216;2023-04-24T11:06:35;7.84;93.81
65836;SHT30;52595;51.608;7.216;2023-04-24T11:09:09;7.93;93.60
65836;SHT30;52595;51.608;7.216;2023-04-24T11:11:38;7.93;93.45
65836;SHT30;52595;51.608;7.216;2023-04-24T11:14:10;8.00;94.15
65836;SHT30;52595;51.608;7.216;2023-04-24T11:16:51;7.96;94.31
65836;SHT30;52595;51.608;7.216;2023-04-24T11:19:25;7.93;93.71
65836;SHT30;52595;51.608;7.216;2023-04-24T11:22:00;7.96;94.34
65836;SHT30;52595;51.608;7.216;2023-04-24T11:24:38;7.97;94.61
65836;SHT30;52595;51.608;7.216;2023-04-24T11:35:18;8.26;94.13
65836;SHT30;52595;51.608;7.216;2023-04-24T11:37:46;8.48;94.01
65836;SHT30;52595;51.608;7.216;2023-04-24T11:40:15;8.61;93.55
65836;SHT30;52595;51.608;7.216;2023-04-24T11:42:45;8.75;93.17
65836;SHT30;52595;51.608;7.216;2023-04-24T11:45:15;8.88;91.77
65836;SHT30;52595;51.608;7.216;2023-04-24T11:47:42;9.01;91.89
65836;SHT30;52595;51.608;7.216;2023-04-24T11:50:12;9.32;92.31
65836;SHT30;52595;51.608;7.216;2023-04-24T11:52:43;9.18;91.04
65836;SHT30;52595;51.608;7.216;2023-04-24T11:57:50;8.96;91.78
65836;SHT30;52595;51.608;7.216;2023-04-24T12:00:22;8.88;91.46
65836;SHT30;52595;51.608;7.216;2023-04-24T12:02:48;8.85;91.51
65836;SHT30;52595;51.608;7.216;2023-04-24T12:05:26;8.83;90.32
65836;SHT30;52595;51.608;7.216;2023-04-24T12:07:53;8.96;89.71
65836;SHT30;52595;51.608;7.216;2023-04-24T12:10:22;9.33;90.46
65836;SHT30;52595;51.608;7.216;2023-04-24T12:12:48;9.80;87.98
65836;SHT30;52595;51.608;7.216;2023-04-24T12:15:17;10.19;86.44
65836;SHT30;52595;51.608;7.216;2023-04-24T12:17:43;10.62;86.01
65836;SHT30;52595;51.608;7.216;2023-04-24T12:20:09;10.34;83.41
65836;SHT30;52595;51.608;7.216;2023-04-24T12:25:20;10.41;82.30
65836;SHT30;52595;51.608;7.216;2023-04-24T12:27:47;10.24;81.63
65836;SHT30;52595;51.608;7.216;2023-04-24T12:30:17;10.18;83.02
65836;SHT30;52595;51.608;7.216;2023-04-24T12:32:47;10.48;84.39
65836;SHT30;52595;51.608;7.216;2023-04-24T12:35:19;10.11;82.65
65836;SHT30;52595;51.608;7.216;2023-04-24T12:37:45;10.09;83.20
65836;SHT30;52595;51.608;7.216;2023-04-24T12:40:12;10.24;81.11
65836;SHT30;52595;51.608;7.216;2023-04-24T12:42:46;10.09;82.29
65836;SHT30;52595;51.608;7.216;2023-04-24T12:45:12;10.05;82.05
65836;SHT30;52595;51.608;7.216;2023-04-24T12:47:39;10.24;82.01
65836;SHT30;52595;51.608;7.216;2023-04-24T12:50:07;9.93;81.27
65836;SHT30;52595;51.608;7.216;2023-04-24T12:52:33;9.70;80.61
65836;SHT30;52595;51.608;7.216;2023-04-24T12:55:00;9.69;81.36
65836;SHT30;52595;51.608;7.216;2023-04-24T12:57:27;9.78;81.99
65836;SHT30;52595;51.608;7.216;2023-04-24T12:59:57;9.66;80.56
65836;SHT30;52595;51.608;7.216;2023-04-24T13:02:27;9.88;80.36
65836;SHT30;52595;51.608;7.216;2023-04-24T13:04:52;9.87;78.68
65836;SHT30;52595;51.608;7.216;2023-04-24T13:07:19;9.78;79.93
65836;SHT30;52595;51.608;7.216;2023-04-24T13:09:45;9.73;79.71
65836;SHT30;52595;51.608;7.216;2023-04-24T13:12:11;9.69;80.83
65836;SHT30;52595;51.608;7.216;2023-04-24T13:14:37;9.80;81.29
65836;SHT30;52595;51.608;7.216;2023-04-24T13:17:03;9.84;81.35
65836;SHT30;52595;51.608;7.216;2023-04-24T13:19:29;9.74;81.01
65836;SHT30;52595;51.608;7.216;2023-04-24T13:21:55;9.60;81.79
65836;SHT30;52595;51.608;7.216;2023-04-24T13:24:24;9.43;81.31
65836;SHT30;52595;51.608;7.216;2023-04-24T13:26:53;9.36;81.80
65836;SHT30;52595;51.608;7.216;2023-04-24T13:29:19;9.37;81.65
65836;SHT30;52595;51.608;7.216;2023-04-24T13:31:46;9.43;80.99
65836;SHT30;52595;51.608;7.216;2023-04-24T13:34:13;9.44;81.53
65836;SHT30;52595;51.608;7.216;2023-04-24T13:36:38;9.43;81.29
65836;SHT30;52595;51.608;7.216;2023-04-24T13:39:05;9.44;81.23
65836;SHT30;52595;51.608;7.216;2023-04-24T13:41:31;9.51;80.60
65836;SHT30;52595;51.608;7.216;2023-04-24T13:43:57;9.63;80.47
65836;SHT30;52595;51.608;7.216;2023-04-24T13:46:22;9.77;80.34
65836;SHT30;52595;51.608;7.216;2023-04-24T13:48:48;10.21;79.88
65836;SHT30;52595;51.608;7.216;2023-04-24T13:51:13;10.21;79.12
65836;SHT30;52595;51.608;7.216;2023-04-24T13:53:39;10.09;77.77
65836;SHT30;52595;51.608;7.216;2023-04-24T13:56:05;10.15;77.88
65836;SHT30;52595;51.608;7.216;2023-04-24T13:58:31;10.24;77.77
65836;SHT30;52595;51.608;7.216;2023-04-24T14:00:58;10.34;78.03
65836;SHT30;52595;51.608;7.216;2023-04-24T14:03:23;10.15;77.43
65836;SHT30;52595;51.608;7.216;2023-04-24T14:05:50;10.28;77.87
65836;SHT30;52595;51.608;7.216;2023-04-24T14:08:16;10.27;78.15
65836;SHT30;52595;51.608;7.216;2023-04-24T14:10:45;10.19;78.55
65836;SHT30;52595;51.608;7.216;2023-04-24T14:13:10;10.21;78.73
65836;SHT30;52595;51.608;7.216;2023-04-24T14:15:36;10.34;78.32
65836;SHT30;52595;51.608;7.216;2023-04-24T14:18:02;10.73;77.47
65836;SHT30;52595;51.608;7.216;2023-04-24T14:20:28;10.72;77.72
65836;SHT30;52595;51.608;7.216;2023-04-24T14:22:53;10.56;76.51
65836;SHT30;52595;51.608;7.216;2023-04-24T14:25:19;10.34;76.20
65836;SHT30;52595;51.608;7.216;2023-04-24T14:27:44;10.19;76.92
65836;SHT30;52595;51.608;7.216;2023-04-24T14:30:12;9.98;78.03
65836;SHT30;52595;51.608;7.216;2023-04-24T14:32:38;9.76;79.25
65836;SHT30;52595;51.608;7.216;2023-04-24T14:35:05;9.70;80.06
65836;SHT30;52595;51.608;7.216;2023-04-24T14:37:31;9.40;81.73
65836;SHT30;52595;51.608;7.216;2023-04-24T14:39:57;9.22;82.75
65836;SHT30;52595;51.608;7.216;2023-04-24T14:42:22;9.06;84.90
65836;SHT30;52595;51.608;7.216;2023-04-24T14:44:48;8.81;87.93
65836;SHT30;52595;51.608;7.216;2023-04-24T14:47:13;8.61;89.57
65836;SHT30;52595;51.608;7.216;2023-04-24T14:49:38;8.51;90.30
65836;SHT30;52595;51.608;7.216;2023-04-24T14:52:04;8.44;91.04
65836;SHT30;52595;51.608;7.216;2023-04-24T14:54:29;8.51;90.49
65836;SHT30;52595;51.608;7.216;2023-04-24T14:56:55;8.78;90.66
65836;SHT30;52595;51.608;7.216;2023-04-24T14:59:24;9.08;89.95
65836;SHT30;52595;51.608;7.216;2023-04-24T15:01:49;9.24;89.69
65836;SHT30;52595;51.608;7.216;2023-04-24T15:04:16;9.39;88.62
65836;SHT30;52595;51.608;7.216;2023-04-24T15:06:41;9.32;88.51
65836;SHT30;52595;51.608;7.216;2023-04-24T15:09:07;9.22;87.41
65836;SHT30;52595;51.608;7.216;2023-04-24T15:11:32;9.36;87.29
65836;SHT30;52595;51.608;7.216;2023-04-24T15:13:58;9.46;87.46
65836;SHT30;52595;51.608;7.216;2023-04-24T15:16:23;9.71;86.59
65836;SHT30;52595;51.608;7.216;2023-04-24T15:18:49;10.29;85.69
65836;SHT30;52595;51.608;7.216;2023-04-24T15:21:14;10.80;83.15
65836;SHT30;52595;51.608;7.216;2023-04-24T15:23:40;11.00;82.77
65836;SHT30;52595;51.608;7.216;2023-04-24T15:26:05;11.95;80.57
65836;SHT30;52595;51.608;7.216;2023-04-24T15:28:31;11.61;78.85
65836;SHT30;52595;51.608;7.216;2023-04-24T15:30:56;12.02;79.00
65836;SHT30;52595;51.608;7.216;2023-04-24T15:33:21;12.12;77.68
65836;SHT30;52595;51.608;7.216;2023-04-24T15:35:47;11.19;79.16
65836;SHT30;52595;51.608;7.216;2023-04-24T15:38:13;10.80;79.71
65836;SHT30;52595;51.608;7.216;2023-04-24T15:40:39;10.37;80.05
65836;SHT30;52595;51.608;7.216;2023-04-24T15:43:04;10.01;79.27
65836;SHT30;52595;51.608;7.216;2023-04-24T15:45:30;9.90;80.38
65836;SHT30;52595;51.608;7.216;2023-04-24T15:47:56;9.76;79.93
65836;SHT30;52595;51.608;7.216;2023-04-24T15:50:21;9.73;81.04
65836;SHT30;52595;51.608;7.216;2023-04-24T15:52:48;9.76;81.09
65836;SHT30;52595;51.608;7.216;2023-04-24T15:55:13;9.71;81.32